Time;durP1;ratioP1;P1;durP2;ratioP2;P2;SDS_P1;SDS_P2;PMS_P1;PMS_P2;Temp;Humidity;BMP_temperature;BMP_pressure;BME280_temperature;BME280_humidity;BME280_pressure;Samples;Min_cycle;Max_cycle;Signal;HPM_P1;HPM_P2
2023/12/08 00:02:42;;;;;;;18.67;11.10;;;;;;;;;;10570200;27;20552;-90
2023/12/08 00:07:44;;;;;;;19.67;12.57;;;;;;;;;;10564879;27;20487;-91
2023/12/08 00:12:47;;;;;;;18.20;11.20;;;;;;;;;;10549815;28;20414;-90
2023/12/08 00:17:50;;;;;;;21.05;13.02;;;;;;;;;;10553243;27;20953;-91
2023/12/08 00:22:53;;;;;;;20.80;13.55;;;;;;;;;;10565971;28;20404;-90
2023/12/08 00:27:55;;;;;;;22.17;14.30;;;;;;;;;;10558363;28;20420;-92
2023/12/08 00:32:59;;;;;;;21.67;13.35;;;;;;;;;;10548486;27;20464;-91
2023/12/08 00:38:02;;;;;;;21.75;12.95;;;;;;;;;;10553184;28;20406;-91
2023/12/08 00:43:04;;;;;;;18.27;12.85;;;;;;;;;;10555713;28;20432;-91
2023/12/08 00:48:08;;;;;;;21.35;12.68;;;;;;;;;;10558603;28;20475;-91
2023/12/08 00:53:10;;;;;;;20.25;12.27;;;;;;;;;;10549900;28;20465;-90
2023/12/08 00:58:14;;;;;;;20.35;12.18;;;;;;;;;;10549966;28;20400;-91
2023/12/08 01:03:18;;;;;;;21.95;12.65;;;;;;;;;;10553029;28;20469;-91
2023/12/08 01:08:20;;;;;;;27.50;14.40;;;;;;;;;;10551600;28;20416;-91
2023/12/08 01:13:23;;;;;;;27.83;13.25;;;;;;;;;;10552399;28;20396;-91
2023/12/08 01:18:26;;;;;;;26.00;14.45;;;;;;;;;;10566314;27;20902;-91
2023/12/08 01:23:29;;;;;;;23.65;13.05;;;;;;;;;;10564332;28;20400;-91
2023/12/08 01:28:31;;;;;;;23.83;13.15;;;;;;;;;;10561102;28;20420;-91
2023/12/08 01:33:35;;;;;;;24.60;13.80;;;;;;;;;;10560356;28;20458;-90
2023/12/08 01:38:37;;;;;;;22.88;13.07;;;;;;;;;;10561382;28;20412;-91
2023/12/08 01:43:39;;;;;;;20.20;12.40;;;;;;;;;;10562079;28;20754;-91
2023/12/08 01:48:43;;;;;;;21.83;12.60;;;;;;;;;;10563185;28;20440;-90
2023/12/08 01:53:46;;;;;;;23.58;12.70;;;;;;;;;;10558469;28;20404;-91
2023/12/08 01:58:49;;;;;;;20.15;12.23;;;;;;;;;;10558330;28;20470;-90
2023/12/08 02:03:53;;;;;;;21.45;12.70;;;;;;;;;;10560318;28;20399;-91
2023/12/08 02:08:55;;;;;;;21.15;13.05;;;;;;;;;;10558686;28;20404;-90
2023/12/08 02:13:58;;;;;;;19.33;12.20;;;;;;;;;;10558628;28;20485;-90
2023/12/08 02:19:04;;;;;;;19.23;11.27;;;;;;;;;;10569726;27;20477;-90
2023/12/08 02:24:08;;;;;;;19.30;11.95;;;;;;;;;;10560159;28;20400;-91
2023/12/08 02:29:10;;;;;;;19.45;11.48;;;;;;;;;;10549497;28;20618;-90
2023/12/08 02:34:16;;;;;;;20.90;11.83;;;;;;;;;;10565443;28;20434;-91
2023/12/08 02:39:21;;;;;;;19.43;12.10;;;;;;;;;;10558167;28;20470;-91
2023/12/08 02:44:23;;;;;;;19.27;12.27;;;;;;;;;;10559160;28;20956;-91
2023/12/08 02:49:26;;;;;;;18.47;11.83;;;;;;;;;;10566903;28;20403;-91
2023/12/08 02:54:30;;;;;;;18.23;11.85;;;;;;;;;;10554523;28;20408;-91
2023/12/08 02:59:32;;;;;;;19.33;11.55;;;;;;;;;;10556756;28;20389;-90
2023/12/08 03:04:34;;;;;;;19.57;11.90;;;;;;;;;;10555956;28;20416;-91
2023/12/08 03:09:38;;;;;;;21.33;12.35;;;;;;;;;;10561619;28;20403;-91
2023/12/08 03:14:41;;;;;;;18.65;11.63;;;;;;;;;;10563755;28;20404;-91
2023/12/08 03:19:43;;;;;;;22.83;13.67;;;;;;;;;;10566523;27;20432;-91
2023/12/08 03:24:47;;;;;;;20.77;12.10;;;;;;;;;;10562687;28;20402;-91
2023/12/08 03:29:49;;;;;;;21.50;12.95;;;;;;;;;;10551677;28;20418;-91
2023/12/08 03:34:51;;;;;;;19.25;12.15;;;;;;;;;;10555216;28;20463;-91
2023/12/08 03:39:55;;;;;;;17.53;11.57;;;;;;;;;;10552151;28;20408;-92
2023/12/08 03:44:58;;;;;;;20.57;12.60;;;;;;;;;;10554719;28;20418;-91
2023/12/08 03:50:00;;;;;;;19.77;12.05;;;;;;;;;;10553596;28;20412;-90
2023/12/08 03:55:05;;;;;;;18.47;11.57;;;;;;;;;;10554446;28;20404;-91
2023/12/08 04:00:10;;;;;;;14.70;10.30;;;;;;;;;;10554038;28;20392;-91
2023/12/08 04:05:13;;;;;;;18.58;10.85;;;;;;;;;;10561541;28;20483;-91
2023/12/08 04:10:16;;;;;;;17.10;10.82;;;;;;;;;;10550828;28;20400;-91
2023/12/08 04:15:19;;;;;;;13.70;10.15;;;;;;;;;;10552269;28;20429;-91
2023/12/08 04:20:22;;;;;;;17.63;10.50;;;;;;;;;;10553160;28;20449;-91
2023/12/08 04:25:26;;;;;;;17.08;9.98;;;;;;;;;;10546849;28;20424;-91
2023/12/08 04:30:28;;;;;;;15.40;9.53;;;;;;;;;;10549866;28;20404;-91
2023/12/08 04:35:31;;;;;;;17.00;10.13;;;;;;;;;;10551513;27;20475;-91
2023/12/08 04:40:34;;;;;;;16.35;9.52;;;;;;;;;;10546289;28;20474;-91
2023/12/08 04:45:37;;;;;;;12.77;7.90;;;;;;;;;;10552358;28;20420;-92
2023/12/08 04:50:39;;;;;;;12.33;7.77;;;;;;;;;;10546451;28;20395;-91
2023/12/08 04:55:43;;;;;;;12.43;7.78;;;;;;;;;;10552511;28;20436;-91
2023/12/08 05:00:45;;;;;;;15.20;8.57;;;;;;;;;;10564406;28;20399;-92
2023/12/08 05:05:48;;;;;;;13.85;8.15;;;;;;;;;;10547690;28;20903;-91
2023/12/08 05:10:51;;;;;;;12.35;7.90;;;;;;;;;;10551144;28;20552;-91
2023/12/08 05:15:54;;;;;;;12.90;7.90;;;;;;;;;;10555812;28;20462;-91
2023/12/08 05:20:56;;;;;;;13.02;8.73;;;;;;;;;;10552906;28;20453;-92
2023/12/08 05:26:00;;;;;;;11.57;7.80;;;;;;;;;;10546855;28;20481;-91
2023/12/08 05:31:04;;;;;;;11.52;7.97;;;;;;;;;;10555082;28;20416;-91
2023/12/08 05:36:07;;;;;;;13.75;8.18;;;;;;;;;;10549776;28;21031;-91
2023/12/08 05:41:11;;;;;;;12.38;8.02;;;;;;;;;;10549330;28;20442;-91
2023/12/08 05:46:13;;;;;;;11.98;7.53;;;;;;;;;;10554171;28;20468;-90
2023/12/08 05:51:16;;;;;;;12.83;7.83;;;;;;;;;;10554041;28;20389;-91
2023/12/08 05:56:20;;;;;;;12.57;7.93;;;;;;;;;;10556994;28;20483;-90
2023/12/08 06:01:22;;;;;;;12.05;7.70;;;;;;;;;;10566463;27;20403;-91
2023/12/08 06:06:27;;;;;;;11.20;7.50;;;;;;;;;;10558737;28;20966;-91
2023/12/08 06:11:31;;;;;;;13.77;8.00;;;;;;;;;;10556834;28;20861;-91
2023/12/08 06:16:33;;;;;;;11.27;7.30;;;;;;;;;;10573989;28;20415;-91
2023/12/08 06:21:36;;;;;;;11.73;7.22;;;;;;;;;;10557167;28;20412;-90
2023/12/08 06:26:39;;;;;;;9.95;6.93;;;;;;;;;;10558140;28;20419;-91
2023/12/08 06:31:45;;;;;;;13.43;7.60;;;;;;;;;;10565650;28;20426;-91
2023/12/08 06:36:48;;;;;;;17.92;7.63;;;;;;;;;;10560541;28;20516;-91
2023/12/08 06:41:51;;;;;;;11.82;7.63;;;;;;;;;;10558613;28;20418;-91
2023/12/08 06:46:54;;;;;;;14.73;9.05;;;;;;;;;;10560279;27;20416;-91
2023/12/08 06:51:56;;;;;;;13.32;8.32;;;;;;;;;;10557936;28;20403;-91
2023/12/08 06:57:00;;;;;;;11.73;7.82;;;;;;;;;;10566024;28;20424;-91
2023/12/08 07:02:02;;;;;;;11.27;7.70;;;;;;;;;;10563186;28;20423;-91
2023/12/08 07:07:05;;;;;;;12.98;7.80;;;;;;;;;;10548807;28;20909;-91
2023/12/08 07:12:08;;;;;;;11.70;7.47;;;;;;;;;;10557451;28;20400;-91
2023/12/08 07:17:11;;;;;;;10.95;7.60;;;;;;;;;;10571378;27;20410;-91
2023/12/08 07:22:13;;;;;;;11.32;7.60;;;;;;;;;;10559119;28;20396;-91
2023/12/08 07:27:17;;;;;;;9.65;6.93;;;;;;;;;;10551481;28;20408;-91
2023/12/08 07:32:19;;;;;;;11.80;7.20;;;;;;;;;;10565493;27;20480;-91
2023/12/08 07:37:22;;;;;;;11.82;7.40;;;;;;;;;;10558222;27;20545;-91
2023/12/08 07:42:25;;;;;;;13.33;8.23;;;;;;;;;;10559218;28;20565;-91
2023/12/08 07:47:28;;;;;;;13.27;7.75;;;;;;;;;;10559865;28;20426;-90
2023/12/08 07:52:33;;;;;;;12.93;8.37;;;;;;;;;;10549848;28;20473;-92
2023/12/08 07:57:40;;;;;;;16.27;9.15;;;;;;;;;;10567354;28;20484;-90
2023/12/08 08:02:43;;;;;;;14.93;9.83;;;;;;;;;;10574296;27;20761;-93
2023/12/08 08:07:45;;;;;;;14.07;9.57;;;;;;;;;;10560920;28;20493;-91
2023/12/08 08:12:49;;;;;;;15.75;9.40;;;;;;;;;;10549595;28;20408;-90
2023/12/08 08:17:52;;;;;;;16.95;9.80;;;;;;;;;;10562287;28;20502;-91
2023/12/08 08:22:54;;;;;;;18.20;10.20;;;;;;;;;;10557614;28;20465;-90
2023/12/08 08:28:00;;;;;;;18.30;10.60;;;;;;;;;;10539578;22;20446;-91
2023/12/08 08:33:02;;;;;;;17.17;10.47;;;;;;;;;;10533178;28;20477;-91
2023/12/08 08:38:04;;;;;;;18.38;11.73;;;;;;;;;;10531717;28;20478;-91
2023/12/08 08:43:08;;;;;;;17.48;10.88;;;;;;;;;;10523096;28;20463;-89
2023/12/08 08:48:10;;;;;;;15.27;10.43;;;;;;;;;;10533420;28;20484;-91
2023/12/08 08:53:13;;;;;;;17.52;10.57;;;;;;;;;;10531791;28;20397;-91
2023/12/08 08:58:17;;;;;;;15.97;10.23;;;;;;;;;;10531091;28;20434;-92
2023/12/08 09:03:19;;;;;;;20.67;10.25;;;;;;;;;;10525207;28;20446;-91
2023/12/08 09:08:21;;;;;;;15.93;9.60;;;;;;;;;;10536721;28;20420;-91
2023/12/08 09:13:25;;;;;;;12.70;9.23;;;;;;;;;;10538839;28;20438;-90
2023/12/08 09:18:27;;;;;;;16.90;11.07;;;;;;;;;;10525888;28;20772;-91
2023/12/08 09:23:30;;;;;;;18.10;10.38;;;;;;;;;;10519433;28;20450;-92
2023/12/08 09:28:34;;;;;;;15.50;10.18;;;;;;;;;;10534247;28;20465;-91
2023/12/08 09:33:37;;;;;;;15.80;10.90;;;;;;;;;;10535488;28;20596;-91
2023/12/08 09:38:39;;;;;;;18.85;11.88;;;;;;;;;;10538033;28;20397;-91
2023/12/08 09:43:49;;;;;;;17.00;10.17;;;;;;;;;;10540791;28;20444;-91
2023/12/08 09:48:55;;;;;;;14.83;10.20;;;;;;;;;;10530410;28;20503;-92
2023/12/08 09:53:58;;;;;;;14.27;9.82;;;;;;;;;;10535852;28;20968;-91
2023/12/08 09:59:02;;;;;;;16.98;10.80;;;;;;;;;;10537753;28;20508;-92
2023/12/08 10:04:05;;;;;;;13.93;9.45;;;;;;;;;;10536608;28;20469;-92
2023/12/08 10:09:08;;;;;;;17.63;10.13;;;;;;;;;;10539263;28;20424;-89
2023/12/08 10:14:13;;;;;;;15.68;9.77;;;;;;;;;;10532794;28;20405;-92
2023/12/08 10:19:20;;;;;;;18.40;10.25;;;;;;;;;;10531995;28;20507;-93
2023/12/08 10:24:22;;;;;;;18.35;10.82;;;;;;;;;;10538757;28;20560;-94
2023/12/08 10:29:31;;;;;;;15.00;9.80;;;;;;;;;;10534312;28;20561;-92
2023/12/08 10:34:33;;;;;;;16.93;10.30;;;;;;;;;;10532116;28;20499;-94
2023/12/08 10:39:36;;;;;;;14.63;9.73;;;;;;;;;;10540065;28;20443;-95
2023/12/08 10:44:40;;;;;;;18.07;9.67;;;;;;;;;;10536868;28;20404;-92
2023/12/08 10:49:42;;;;;;;17.42;9.95;;;;;;;;;;10529335;28;20932;-94
2023/12/08 10:54:45;;;;;;;15.18;8.88;;;;;;;;;;10529341;28;20406;-95
2023/12/08 10:59:54;;;;;;;16.20;9.50;;;;;;;;;;10525908;28;20954;-92
2023/12/08 11:05:00;;;;;;;15.10;10.13;;;;;;;;;;10533345;28;20458;-91
2023/12/08 11:10:07;;;;;;;15.37;9.73;;;;;;;;;;10525685;28;20420;-93
2023/12/08 11:15:16;;;;;;;15.73;9.52;;;;;;;;;;10536198;28;20443;-93
2023/12/08 11:20:20;;;;;;;14.10;9.15;;;;;;;;;;10535403;28;20446;-92
2023/12/08 11:25:30;;;;;;;13.48;7.90;;;;;;;;;;10539604;28;20408;-91
2023/12/08 11:30:45;;;;;;;13.68;8.48;;;;;;;;;;10533395;28;20477;-91
2023/12/08 11:35:51;;;;;;;14.40;7.93;;;;;;;;;;10524461;28;20412;-91
2023/12/08 11:40:54;;;;;;;9.80;7.37;;;;;;;;;;10535743;28;20400;-91
2023/12/08 11:45:58;;;;;;;13.10;8.00;;;;;;;;;;10511982;28;20388;-90
2023/12/08 11:51:01;;;;;;;12.73;7.67;;;;;;;;;;10523297;28;20412;-90
2023/12/08 11:56:04;;;;;;;12.13;7.77;;;;;;;;;;10529976;28;20409;-89
2023/12/08 12:01:11;;;;;;;13.18;8.35;;;;;;;;;;10520387;28;20470;-90
2023/12/08 12:06:14;;;;;;;14.30;8.90;;;;;;;;;;10519846;28;20438;-91
2023/12/08 12:11:19;;;;;;;12.95;8.07;;;;;;;;;;10521466;28;20980;-91
2023/12/08 12:16:23;;;;;;;12.60;7.57;;;;;;;;;;10528011;28;20420;-91
2023/12/08 12:21:26;;;;;;;11.45;7.20;;;;;;;;;;10527107;28;20416;-91
2023/12/08 12:26:29;;;;;;;12.50;8.35;;;;;;;;;;10524366;28;20964;-91
2023/12/08 12:31:33;;;;;;;12.52;8.18;;;;;;;;;;10510497;28;20442;-91
2023/12/08 12:36:36;;;;;;;11.83;8.30;;;;;;;;;;10520627;28;20501;-91
2023/12/08 12:41:39;;;;;;;11.65;8.40;;;;;;;;;;10520169;28;20481;-91
2023/12/08 12:46:43;;;;;;;15.97;9.17;;;;;;;;;;10522017;28;20430;-92
2023/12/08 12:51:47;;;;;;;13.65;8.85;;;;;;;;;;10519121;28;20944;-91
2023/12/08 12:56:50;;;;;;;11.75;8.30;;;;;;;;;;10517370;28;20416;-89
2023/12/08 13:01:54;;;;;;;11.85;8.65;;;;;;;;;;10518084;28;20460;-89
2023/12/08 13:06:57;;;;;;;13.38;9.23;;;;;;;;;;10523651;28;20438;-90
2023/12/08 13:12:00;;;;;;;13.77;8.80;;;;;;;;;;10532250;28;20707;-89
2023/12/08 13:17:05;;;;;;;13.30;8.80;;;;;;;;;;10529107;28;20400;-90
2023/12/08 13:22:08;;;;;;;12.20;8.37;;;;;;;;;;10520593;28;20404;-89
2023/12/08 13:27:10;;;;;;;11.85;8.10;;;;;;;;;;10522497;28;20911;-90
2023/12/08 13:32:14;;;;;;;13.07;8.52;;;;;;;;;;10521773;28;20798;-89
2023/12/08 13:37:16;;;;;;;13.32;8.77;;;;;;;;;;10532281;28;20404;-89
2023/12/08 13:42:19;;;;;;;15.30;9.63;;;;;;;;;;10519637;28;20477;-88
2023/12/08 13:47:22;;;;;;;13.90;10.18;;;;;;;;;;10527825;28;20479;-86
2023/12/08 13:52:25;;;;;;;20.27;9.98;;;;;;;;;;10525223;28;20822;-88
2023/12/08 13:57:27;;;;;;;15.30;9.77;;;;;;;;;;10524361;28;20513;-88
2023/12/08 14:02:31;;;;;;;16.43;11.23;;;;;;;;;;10528106;28;20416;-87
2023/12/08 14:07:33;;;;;;;16.20;10.48;;;;;;;;;;10517263;28;20493;-87
2023/12/08 14:12:36;;;;;;;15.75;9.65;;;;;;;;;;10524726;28;20408;-88
2023/12/08 14:17:40;;;;;;;14.93;10.07;;;;;;;;;;10529003;28;20404;-88
2023/12/08 14:22:42;;;;;;;17.05;10.50;;;;;;;;;;10525026;28;20405;-87
2023/12/08 14:27:45;;;;;;;17.50;11.00;;;;;;;;;;10515850;28;20465;-88
2023/12/08 14:32:48;;;;;;;12.00;7.88;;;;;;;;;;10525775;28;20416;-88
2023/12/08 14:37:51;;;;;;;10.60;7.05;;;;;;;;;;10521136;28;20404;-88
2023/12/08 14:42:54;;;;;;;11.98;6.97;;;;;;;;;;10517480;28;20434;-89
2023/12/08 14:47:58;;;;;;;10.82;6.85;;;;;;;;;;10526765;28;20753;-88
2023/12/08 14:53:00;;;;;;;11.63;7.47;;;;;;;;;;10532499;28;20408;-88
2023/12/08 14:58:03;;;;;;;13.57;8.80;;;;;;;;;;10524020;28;20420;-88
2023/12/08 15:03:07;;;;;;;15.80;9.38;;;;;;;;;;10519465;28;20416;-91
2023/12/08 15:08:09;;;;;;;16.25;9.00;;;;;;;;;;10518301;28;20424;-90
2023/12/08 15:13:12;;;;;;;13.98;9.10;;;;;;;;;;10519458;28;20465;-87
2023/12/08 15:18:15;;;;;;;15.67;9.07;;;;;;;;;;10520566;28;20424;-84
2023/12/08 15:23:20;;;;;;;17.23;10.60;;;;;;;;;;10511677;28;20444;-83
2023/12/08 15:28:22;;;;;;;16.50;11.82;;;;;;;;;;10516985;28;20449;-83
2023/12/08 15:33:26;;;;;;;17.92;11.70;;;;;;;;;;10518658;28;20511;-84
2023/12/08 15:38:28;;;;;;;22.90;15.18;;;;;;;;;;10533253;28;20408;-89
2023/12/08 15:43:31;;;;;;;18.90;13.02;;;;;;;;;;10528973;28;20457;-91
2023/12/08 15:48:35;;;;;;;24.38;15.48;;;;;;;;;;10516592;28;20465;-91
2023/12/08 15:53:37;;;;;;;24.58;16.45;;;;;;;;;;10521481;28;20485;-89
2023/12/08 15:58:40;;;;;;;28.20;17.55;;;;;;;;;;10520872;28;20412;-90
2023/12/08 16:03:44;;;;;;;27.05;17.10;;;;;;;;;;10514746;28;20473;-92
2023/12/08 16:08:47;;;;;;;26.88;17.30;;;;;;;;;;10521530;28;21183;-91
2023/12/08 16:13:49;;;;;;;29.40;17.65;;;;;;;;;;10523453;28;20442;-91
2023/12/08 16:18:53;;;;;;;30.43;17.77;;;;;;;;;;10517122;28;20473;-91
2023/12/08 16:23:56;;;;;;;30.88;19.17;;;;;;;;;;10520864;28;20455;-90
2023/12/08 16:28:58;;;;;;;34.60;20.48;;;;;;;;;;10520758;28;20430;-91
2023/12/08 16:34:02;;;;;;;34.30;20.63;;;;;;;;;;10512775;28;20406;-90
2023/12/08 16:39:05;;;;;;;30.45;18.60;;;;;;;;;;10523530;28;20945;-91
2023/12/08 16:44:07;;;;;;;25.90;15.85;;;;;;;;;;10507775;28;20434;-88
2023/12/08 16:49:11;;;;;;;27.00;16.80;;;;;;;;;;10515969;28;21678;-88
2023/12/08 16:54:13;;;;;;;26.30;16.63;;;;;;;;;;10508063;28;20945;-89
2023/12/08 16:59:18;;;;;;;27.17;17.33;;;;;;;;;;10522480;28;22147;-88
2023/12/08 17:04:22;;;;;;;31.85;19.38;;;;;;;;;;10512888;28;20414;-91
2023/12/08 17:09:24;;;;;;;31.90;19.48;;;;;;;;;;10520147;28;20556;-79
2023/12/08 17:14:26;;;;;;;29.30;19.17;;;;;;;;;;10507774;28;20976;-90
2023/12/08 17:19:30;;;;;;;28.38;18.52;;;;;;;;;;10518819;28;20435;-89
2023/12/08 17:24:36;;;;;;;34.38;18.25;;;;;;;;;;10525287;28;20442;-91
2023/12/08 17:29:38;;;;;;;35.80;21.33;;;;;;;;;;10529531;28;20401;-89
2023/12/08 17:34:45;;;;;;;35.65;22.45;;;;;;;;;;10509642;28;20438;-88
2023/12/08 17:39:47;;;;;;;39.30;20.88;;;;;;;;;;10520546;28;21087;-91
2023/12/08 17:44:50;;;;;;;31.30;19.53;;;;;;;;;;10514010;28;20880;-90
2023/12/08 17:49:54;;;;;;;29.43;18.87;;;;;;;;;;10530548;28;20446;-89
2023/12/08 17:54:58;;;;;;;30.80;18.67;;;;;;;;;;10521009;28;20465;-90
2023/12/08 18:00:00;;;;;;;28.92;19.15;;;;;;;;;;10529027;28;20396;-91
2023/12/08 18:05:05;;;;;;;31.05;20.48;;;;;;;;;;10529490;28;20780;-91
2023/12/08 18:10:08;;;;;;;34.28;22.00;;;;;;;;;;10526579;28;20481;-90
2023/12/08 18:15:12;;;;;;;39.33;23.75;;;;;;;;;;10520145;28;20418;-91
2023/12/08 18:20:16;;;;;;;40.87;24.30;;;;;;;;;;10531411;28;20409;-91
2023/12/08 18:25:18;;;;;;;41.40;25.17;;;;;;;;;;10527547;28;20445;-91
2023/12/08 18:30:20;;;;;;;40.63;24.10;;;;;;;;;;10527729;28;20540;-91
2023/12/08 18:35:24;;;;;;;37.40;22.37;;;;;;;;;;10527270;28;20412;-90
2023/12/08 18:40:29;;;;;;;38.10;23.27;;;;;;;;;;10512188;28;20461;-91
2023/12/08 18:45:31;;;;;;;41.08;23.35;;;;;;;;;;10517817;28;20748;-90
2023/12/08 18:50:35;;;;;;;32.85;20.98;;;;;;;;;;10525842;28;20475;-91
2023/12/08 18:55:37;;;;;;;30.15;17.63;;;;;;;;;;10532391;28;20401;-90
2023/12/08 19:00:40;;;;;;;28.88;18.25;;;;;;;;;;10525294;28;20426;-90
2023/12/08 19:05:45;;;;;;;32.10;19.37;;;;;;;;;;10530099;28;20453;-90
2023/12/08 19:10:48;;;;;;;30.00;18.83;;;;;;;;;;10529849;28;20509;-90
2023/12/08 19:15:52;;;;;;;31.52;20.45;;;;;;;;;;10522202;28;22336;-90
2023/12/08 19:20:55;;;;;;;32.90;20.27;;;;;;;;;;10518219;28;20421;-91
2023/12/08 19:25:59;;;;;;;30.67;19.40;;;;;;;;;;10506089;28;20441;-89
2023/12/08 19:31:03;;;;;;;29.50;19.90;;;;;;;;;;10520393;28;20431;-90
2023/12/08 19:36:08;;;;;;;31.00;19.35;;;;;;;;;;10515472;28;20410;-88
2023/12/08 19:41:15;;;;;;;31.20;19.30;;;;;;;;;;10519868;28;20507;-90
2023/12/08 19:46:17;;;;;;;31.05;18.95;;;;;;;;;;10522240;28;20404;-90
2023/12/08 19:51:50;;;;;;;30.47;19.27;;;;;;;;;;10514928;28;20476;-88
2023/12/08 20:03:09;;;;;;;35.57;20.77;;;;;;;;;;10509616;28;20814;-90
2023/12/08 20:08:12;;;;;;;36.17;21.60;;;;;;;;;;10512936;28;20504;-89
2023/12/08 20:13:15;;;;;;;34.13;21.63;;;;;;;;;;10525546;28;20451;-90
2023/12/08 20:18:29;;;;;;;38.37;22.93;;;;;;;;;;10520982;28;20412;-91
2023/12/08 20:23:34;;;;;;;40.40;25.25;;;;;;;;;;10512797;28;20458;-91
2023/12/08 20:28:36;;;;;;;36.37;21.70;;;;;;;;;;10518705;28;20400;-90
2023/12/08 20:33:41;;;;;;;36.13;21.85;;;;;;;;;;10524193;28;20417;-90
2023/12/08 20:38:43;;;;;;;35.08;20.48;;;;;;;;;;10521510;28;20416;-91
2023/12/08 20:43:46;;;;;;;34.67;22.73;;;;;;;;;;10515865;28;20784;-90
2023/12/08 20:48:54;;;;;;;35.20;21.77;;;;;;;;;;10515428;28;20928;-90
2023/12/08 20:53:57;;;;;;;34.72;22.55;;;;;;;;;;10526935;28;20421;-90
2023/12/08 20:58:59;;;;;;;35.63;23.27;;;;;;;;;;10516486;28;20412;-89
2023/12/08 21:04:03;;;;;;;39.00;23.95;;;;;;;;;;10519357;28;20472;-91
2023/12/08 21:09:06;;;;;;;36.88;24.20;;;;;;;;;;10515839;28;20447;-91
2023/12/08 21:14:08;;;;;;;35.60;23.20;;;;;;;;;;10521702;28;20416;-90
2023/12/08 21:19:12;;;;;;;43.50;24.70;;;;;;;;;;10518334;28;20404;-90
2023/12/08 21:24:15;;;;;;;40.15;25.08;;;;;;;;;;10530055;28;20501;-91
2023/12/08 21:29:18;;;;;;;41.83;26.67;;;;;;;;;;10532578;28;20454;-92
2023/12/08 21:34:22;;;;;;;45.65;28.83;;;;;;;;;;10533498;28;21093;-91
2023/12/08 21:39:24;;;;;;;41.45;27.35;;;;;;;;;;10525767;28;20416;-91
2023/12/08 21:44:27;;;;;;;42.83;26.67;;;;;;;;;;10527986;28;20412;-90
2023/12/08 21:49:31;;;;;;;43.72;27.30;;;;;;;;;;10532407;28;20469;-90
2023/12/08 21:54:33;;;;;;;42.42;26.73;;;;;;;;;;10520429;28;20420;-83
2023/12/08 21:59:36;;;;;;;42.38;26.92;;;;;;;;;;10530774;28;20482;-91
2023/12/08 22:04:40;;;;;;;45.23;27.67;;;;;;;;;;10531957;28;20408;-91
2023/12/08 22:09:45;;;;;;;43.17;27.17;;;;;;;;;;10522592;28;20408;-91
2023/12/08 22:14:48;;;;;;;41.70;26.58;;;;;;;;;;10526825;28;20476;-91
2023/12/08 22:19:51;;;;;;;44.90;27.00;;;;;;;;;;10545395;28;20788;-91
2023/12/08 22:24:54;;;;;;;51.38;29.95;;;;;;;;;;10524198;28;20417;-91
2023/12/08 22:29:56;;;;;;;51.90;31.50;;;;;;;;;;10505778;28;20408;-91
2023/12/08 22:35:00;;;;;;;49.17;31.75;;;;;;;;;;10512565;28;20404;-91
2023/12/08 22:40:03;;;;;;;47.72;31.02;;;;;;;;;;10534583;28;20412;-92
2023/12/08 22:45:06;;;;;;;55.85;30.92;;;;;;;;;;10531576;28;20397;-91
2023/12/08 22:50:11;;;;;;;55.33;33.75;;;;;;;;;;10536379;28;20855;-92
2023/12/08 22:55:13;;;;;;;52.60;31.47;;;;;;;;;;10541405;28;20419;-92
2023/12/08 23:00:21;;;;;;;47.63;30.70;;;;;;;;;;10533710;28;20427;-91
2023/12/08 23:05:25;;;;;;;50.75;31.25;;;;;;;;;;10533174;28;20930;-92
2023/12/08 23:10:27;;;;;;;50.63;30.60;;;;;;;;;;10536381;28;20414;-91
2023/12/08 23:15:30;;;;;;;49.38;31.17;;;;;;;;;;10536012;28;20876;-92
2023/12/08 23:20:34;;;;;;;52.38;32.35;;;;;;;;;;10530629;28;20821;-92
2023/12/08 23:25:41;;;;;;;48.83;29.60;;;;;;;;;;10539376;28;20476;-91
2023/12/08 23:30:43;;;;;;;54.30;30.35;;;;;;;;;;10540432;28;20424;-91
2023/12/08 23:35:47;;;;;;;49.97;30.03;;;;;;;;;;10559011;28;20391;-92
2023/12/08 23:40:50;;;;;;;46.95;28.63;;;;;;;;;;10522573;28;20457;-91
2023/12/08 23:45:53;;;;;;;46.23;28.87;;;;;;;;;;10531762;28;20400;-92
2023/12/08 23:50:57;;;;;;;47.38;27.00;;;;;;;;;;10533181;28;20520;-91
2023/12/08 23:55:59;;;;;;;50.07;27.07;;;;;;;;;;10538359;28;21062;-91
